sensor_id;sensor_type;location;lat;lon;timestamp;temperature;humidity
35363;DHT22;21463;47.480;8.214;2023-07-16T00:00:14;21.80;71.50
35363;DHT22;21463;47.480;8.214;2023-07-16T00:01:23;21.80;71.50
35363;DHT22;21463;47.480;8.214;2023-07-16T00:02:25;21.80;71.50
35363;DHT22;21463;47.480;8.214;2023-07-16T00:03:28;21.80;71.40
35363;DHT22;21463;47.480;8.214;2023-07-16T00:04:31;21.80;71.40
35363;DHT22;21463;47.480;8.214;2023-07-16T00:05:33;21.80;71.40
35363;DHT22;21463;47.480;8.214;2023-07-16T00:06:35;21.80;71.40
35363;DHT22;21463;47.480;8.214;2023-07-16T00:07:37;21.80;71.40
35363;DHT22;21463;47.480;8.214;2023-07-16T00:08:40;21.70;71.30
35363;DHT22;21463;47.480;8.214;2023-07-16T00:09:42;21.80;71.40
35363;DHT22;21463;47.480;8.214;2023-07-16T00:10:44;21.80;72.00
35363;DHT22;21463;47.480;8.214;2023-07-16T00:11:46;21.80;71.40
35363;DHT22;21463;47.480;8.214;2023-07-16T00:12:49;21.80;71.40
35363;DHT22;21463;47.480;8.214;2023-07-16T00:13:51;21.80;71.40
35363;DHT22;21463;47.480;8.214;2023-07-16T00:14:53;21.80;71.40
35363;DHT22;21463;47.480;8.214;2023-07-16T00:15:57;21.80;71.40
35363;DHT22;21463;47.480;8.214;2023-07-16T00:16:59;21.70;71.40
35363;DHT22;21463;47.480;8.214;2023-07-16T00:18:02;21.80;71.40
35363;DHT22;21463;47.480;8.214;2023-07-16T00:19:04;21.80;71.40
35363;DHT22;21463;47.480;8.214;2023-07-16T00:20:07;21.80;71.40
35363;DHT22;21463;47.480;8.214;2023-07-16T00:21:09;21.80;71.40
35363;DHT22;21463;47.480;8.214;2023-07-16T00:22:11;21.80;71.40
35363;DHT22;21463;47.480;8.214;2023-07-16T00:23:14;21.70;71.30
35363;DHT22;21463;47.480;8.214;2023-07-16T00:24:16;21.80;71.30
35363;DHT22;21463;47.480;8.214;2023-07-16T00:25:18;21.80;71.30
35363;DHT22;21463;47.480;8.214;2023-07-16T00:26:21;21.80;71.30
35363;DHT22;21463;47.480;8.214;2023-07-16T00:27:23;21.80;71.30
35363;DHT22;21463;47.480;8.214;2023-07-16T00:28:25;21.80;71.30
35363;DHT22;21463;47.480;8.214;2023-07-16T00:29:27;21.70;71.30
35363;DHT22;21463;47.480;8.214;2023-07-16T00:30:30;21.70;71.30
35363;DHT22;21463;47.480;8.214;2023-07-16T00:31:32;21.70;71.30
35363;DHT22;21463;47.480;8.214;2023-07-16T00:32:34;21.80;71.30
35363;DHT22;21463;47.480;8.214;2023-07-16T00:33:37;21.70;71.30
35363;DHT22;21463;47.480;8.214;2023-07-16T00:34:39;21.70;71.20
35363;DHT22;21463;47.480;8.214;2023-07-16T00:35:46;21.80;71.30
35363;DHT22;21463;47.480;8.214;2023-07-16T00:36:48;21.70;71.20
35363;DHT22;21463;47.480;8.214;2023-07-16T00:37:51;21.80;71.30
35363;DHT22;21463;47.480;8.214;2023-07-16T00:38:53;21.70;71.20
35363;DHT22;21463;47.480;8.214;2023-07-16T00:39:58;21.70;71.20
35363;DHT22;21463;47.480;8.214;2023-07-16T00:41:04;21.70;71.20
35363;DHT22;21463;47.480;8.214;2023-07-16T00:42:06;21.70;71.20
35363;DHT22;21463;47.480;8.214;2023-07-16T00:43:09;21.70;71.20
35363;DHT22;21463;47.480;8.214;2023-07-16T00:44:12;21.80;71.20
35363;DHT22;21463;47.480;8.214;2023-07-16T00:45:14;21.70;71.10
35363;DHT22;21463;47.480;8.214;2023-07-16T00:46:19;21.70;71.20
35363;DHT22;21463;47.480;8.214;2023-07-16T00:47:21;21.70;71.20
35363;DHT22;21463;47.480;8.214;2023-07-16T00:48:24;21.70;71.10
35363;DHT22;21463;47.480;8.214;2023-07-16T00:49:27;21.70;71.10
35363;DHT22;21463;47.480;8.214;2023-07-16T00:50:33;21.80;71.20
35363;DHT22;21463;47.480;8.214;2023-07-16T00:51:36;21.70;71.10
35363;DHT22;21463;47.480;8.214;2023-07-16T00:52:39;21.70;71.10
35363;DHT22;21463;47.480;8.214;2023-07-16T00:53:41;21.70;71.10
35363;DHT22;21463;47.480;8.214;2023-07-16T00:54:45;21.70;71.10
35363;DHT22;21463;47.480;8.214;2023-07-16T00:55:47;21.70;71.10
35363;DHT22;21463;47.480;8.214;2023-07-16T00:56:50;21.70;71.10
35363;DHT22;21463;47.480;8.214;2023-07-16T00:57:52;21.70;71.00
35363;DHT22;21463;47.480;8.214;2023-07-16T00:58:55;21.70;71.00
35363;DHT22;21463;47.480;8.214;2023-07-16T00:59:58;21.70;71.00
35363;DHT22;21463;47.480;8.214;2023-07-16T01:01:00;21.70;71.00
35363;DHT22;21463;47.480;8.214;2023-07-16T01:02:02;21.70;71.00
35363;DHT22;21463;47.480;8.214;2023-07-16T01:03:06;21.70;71.00
35363;DHT22;21463;47.480;8.214;2023-07-16T01:04:15;21.70;71.00
35363;DHT22;21463;47.480;8.214;2023-07-16T01:05:18;21.70;70.90
35363;DHT22;21463;47.480;8.214;2023-07-16T01:07:24;21.70;71.00
35363;DHT22;21463;47.480;8.214;2023-07-16T01:08:30;21.70;70.90
35363;DHT22;21463;47.480;8.214;2023-07-16T01:09:34;21.70;70.90
35363;DHT22;21463;47.480;8.214;2023-07-16T01:10:41;21.80;70.90
35363;DHT22;21463;47.480;8.214;2023-07-16T01:11:44;21.70;70.90
35363;DHT22;21463;47.480;8.214;2023-07-16T01:12:46;21.70;70.90
35363;DHT22;21463;47.480;8.214;2023-07-16T01:13:48;21.70;70.90
35363;DHT22;21463;47.480;8.214;2023-07-16T01:14:51;21.70;70.90
35363;DHT22;21463;47.480;8.214;2023-07-16T01:15:54;21.70;70.90
35363;DHT22;21463;47.480;8.214;2023-07-16T01:16:56;21.70;70.90
35363;DHT22;21463;47.480;8.214;2023-07-16T01:18:01;21.70;70.80
35363;DHT22;21463;47.480;8.214;2023-07-16T01:19:06;21.70;70.90
35363;DHT22;21463;47.480;8.214;2023-07-16T01:20:08;21.70;70.80
35363;DHT22;21463;47.480;8.214;2023-07-16T01:21:10;21.70;70.80
35363;DHT22;21463;47.480;8.214;2023-07-16T01:23:26;21.70;70.80
35363;DHT22;21463;47.480;8.214;2023-07-16T01:24:44;21.70;70.80
35363;DHT22;21463;47.480;8.214;2023-07-16T01:29:51;21.70;70.80
35363;DHT22;21463;47.480;8.214;2023-07-16T01:30:46;21.70;70.70
35363;DHT22;21463;47.480;8.214;2023-07-16T01:31:49;21.70;70.70
35363;DHT22;21463;47.480;8.214;2023-07-16T01:32:52;21.70;70.80
35363;DHT22;21463;47.480;8.214;2023-07-16T01:33:55;21.70;70.70
35363;DHT22;21463;47.480;8.214;2023-07-16T01:34:58;21.70;70.70
35363;DHT22;21463;47.480;8.214;2023-07-16T01:36:01;21.70;70.70
35363;DHT22;21463;47.480;8.214;2023-07-16T01:37:04;21.70;70.70
35363;DHT22;21463;47.480;8.214;2023-07-16T01:38:08;21.70;70.70
35363;DHT22;21463;47.480;8.214;2023-07-16T01:39:11;21.70;70.70
35363;DHT22;21463;47.480;8.214;2023-07-16T01:40:13;21.70;70.70
35363;DHT22;21463;47.480;8.214;2023-07-16T01:41:16;21.70;70.70
35363;DHT22;21463;47.480;8.214;2023-07-16T01:42:18;21.70;70.70
35363;DHT22;21463;47.480;8.214;2023-07-16T01:43:21;21.70;70.70
35363;DHT22;21463;47.480;8.214;2023-07-16T01:44:23;21.70;70.70
35363;DHT22;21463;47.480;8.214;2023-07-16T01:45:25;21.70;70.70
35363;DHT22;21463;47.480;8.214;2023-07-16T01:46:28;21.70;70.60
35363;DHT22;21463;47.480;8.214;2023-07-16T01:48:34;21.70;70.60
35363;DHT22;21463;47.480;8.214;2023-07-16T01:49:37;21.70;70.70
35363;DHT22;21463;47.480;8.214;2023-07-16T01:50:40;21.70;70.60
35363;DHT22;21463;47.480;8.214;2023-07-16T01:51:42;21.70;70.60
35363;DHT22;21463;47.480;8.214;2023-07-16T01:52:45;21.70;70.60
35363;DHT22;21463;47.480;8.214;2023-07-16T01:53:47;21.70;70.70
35363;DHT22;21463;47.480;8.214;2023-07-16T01:54:49;21.70;70.60
35363;DHT22;21463;47.480;8.214;2023-07-16T01:55:55;21.70;70.60
35363;DHT22;21463;47.480;8.214;2023-07-16T01:56:57;21.70;70.60
35363;DHT22;21463;47.480;8.214;2023-07-16T01:58:03;21.70;70.60
35363;DHT22;21463;47.480;8.214;2023-07-16T01:59:05;21.70;70.60
35363;DHT22;21463;47.480;8.214;2023-07-16T02:00:07;21.70;70.60
35363;DHT22;21463;47.480;8.214;2023-07-16T02:01:20;21.70;70.60
35363;DHT22;21463;47.480;8.214;2023-07-16T02:02:22;21.70;70.60
35363;DHT22;21463;47.480;8.214;2023-07-16T02:03:24;21.70;70.60
35363;DHT22;21463;47.480;8.214;2023-07-16T02:04:27;21.70;70.60
35363;DHT22;21463;47.480;8.214;2023-07-16T02:05:32;21.70;70.60
35363;DHT22;21463;47.480;8.214;2023-07-16T02:06:35;21.60;70.60
35363;DHT22;21463;47.480;8.214;2023-07-16T02:07:37;21.70;70.60
35363;DHT22;21463;47.480;8.214;2023-07-16T02:08:41;21.70;70.60
35363;DHT22;21463;47.480;8.214;2023-07-16T02:09:43;21.70;70.60
35363;DHT22;21463;47.480;8.214;2023-07-16T02:10:49;21.70;70.60
35363;DHT22;21463;47.480;8.214;2023-07-16T02:11:51;21.70;70.60
35363;DHT22;21463;47.480;8.214;2023-07-16T02:12:54;21.70;70.60
35363;DHT22;21463;47.480;8.214;2023-07-16T02:13:57;21.70;70.60
35363;DHT22;21463;47.480;8.214;2023-07-16T02:14:59;21.70;70.60
35363;DHT22;21463;47.480;8.214;2023-07-16T02:16:01;21.60;70.50
35363;DHT22;21463;47.480;8.214;2023-07-16T02:17:04;21.70;70.60
35363;DHT22;21463;47.480;8.214;2023-07-16T02:18:06;21.60;70.50
35363;DHT22;21463;47.480;8.214;2023-07-16T02:19:10;21.70;70.60
35363;DHT22;21463;47.480;8.214;2023-07-16T02:20:12;21.70;70.60
35363;DHT22;21463;47.480;8.214;2023-07-16T02:21:14;21.70;70.60
35363;DHT22;21463;47.480;8.214;2023-07-16T02:22:17;21.70;70.60
35363;DHT22;21463;47.480;8.214;2023-07-16T02:23:22;21.70;70.60
35363;DHT22;21463;47.480;8.214;2023-07-16T02:24:24;21.60;70.50
35363;DHT22;21463;47.480;8.214;2023-07-16T02:25:26;21.70;70.50
35363;DHT22;21463;47.480;8.214;2023-07-16T02:26:29;21.70;70.60
35363;DHT22;21463;47.480;8.214;2023-07-16T02:27:31;21.70;70.50
35363;DHT22;21463;47.480;8.214;2023-07-16T02:28:33;21.70;70.50
35363;DHT22;21463;47.480;8.214;2023-07-16T02:29:35;21.60;70.50
35363;DHT22;21463;47.480;8.214;2023-07-16T02:30:40;21.60;70.50
35363;DHT22;21463;47.480;8.214;2023-07-16T02:31:42;21.60;70.50
35363;DHT22;21463;47.480;8.214;2023-07-16T02:32:48;21.60;70.50
35363;DHT22;21463;47.480;8.214;2023-07-16T02:33:50;21.70;70.50
35363;DHT22;21463;47.480;8.214;2023-07-16T02:34:52;21.60;70.50
35363;DHT22;21463;47.480;8.214;2023-07-16T02:35:55;21.60;70.50
35363;DHT22;21463;47.480;8.214;2023-07-16T02:36:57;21.60;70.50
35363;DHT22;21463;47.480;8.214;2023-07-16T02:38:02;21.70;70.50
35363;DHT22;21463;47.480;8.214;2023-07-16T02:39:06;21.70;70.50
35363;DHT22;21463;47.480;8.214;2023-07-16T02:40:09;21.60;70.50
35363;DHT22;21463;47.480;8.214;2023-07-16T02:41:11;21.70;70.50
35363;DHT22;21463;47.480;8.214;2023-07-16T02:42:13;21.70;70.50
35363;DHT22;21463;47.480;8.214;2023-07-16T02:43:16;21.70;70.50
35363;DHT22;21463;47.480;8.214;2023-07-16T02:44:20;21.70;70.50
35363;DHT22;21463;47.480;8.214;2023-07-16T02:45:22;21.60;70.50
35363;DHT22;21463;47.480;8.214;2023-07-16T02:46:27;21.60;70.50
35363;DHT22;21463;47.480;8.214;2023-07-16T02:47:29;21.60;70.50
35363;DHT22;21463;47.480;8.214;2023-07-16T02:48:34;21.60;70.50
35363;DHT22;21463;47.480;8.214;2023-07-16T02:49:37;21.60;70.50
35363;DHT22;21463;47.480;8.214;2023-07-16T02:50:42;21.60;70.40
35363;DHT22;21463;47.480;8.214;2023-07-16T02:51:44;21.60;70.40
35363;DHT22;21463;47.480;8.214;2023-07-16T02:52:46;21.60;70.40
35363;DHT22;21463;47.480;8.214;2023-07-16T02:53:49;21.70;70.40
35363;DHT22;21463;47.480;8.214;2023-07-16T02:54:51;21.70;70.40
35363;DHT22;21463;47.480;8.214;2023-07-16T02:55:54;21.70;70.50
35363;DHT22;21463;47.480;8.214;2023-07-16T02:56:56;21.60;70.40
35363;DHT22;21463;47.480;8.214;2023-07-16T02:57:58;21.60;70.40
35363;DHT22;21463;47.480;8.214;2023-07-16T02:59:02;21.60;70.40
35363;DHT22;21463;47.480;8.214;2023-07-16T03:00:04;21.70;70.40
35363;DHT22;21463;47.480;8.214;2023-07-16T03:01:07;21.60;70.40
35363;DHT22;21463;47.480;8.214;2023-07-16T03:02:09;21.60;70.40
35363;DHT22;21463;47.480;8.214;2023-07-16T03:03:11;21.60;70.40
35363;DHT22;21463;47.480;8.214;2023-07-16T03:04:14;21.60;70.40
35363;DHT22;21463;47.480;8.214;2023-07-16T03:05:16;21.60;70.40
35363;DHT22;21463;47.480;8.214;2023-07-16T03:06:21;21.70;70.40
35363;DHT22;21463;47.480;8.214;2023-07-16T03:07:25;21.60;70.40
35363;DHT22;21463;47.480;8.214;2023-07-16T03:08:28;21.60;70.40
35363;DHT22;21463;47.480;8.214;2023-07-16T03:09:32;21.60;70.40
35363;DHT22;21463;47.480;8.214;2023-07-16T03:10:34;21.60;70.40
35363;DHT22;21463;47.480;8.214;2023-07-16T03:11:36;21.60;70.40
35363;DHT22;21463;47.480;8.214;2023-07-16T03:12:39;21.60;70.40
35363;DHT22;21463;47.480;8.214;2023-07-16T03:13:41;21.60;70.40
35363;DHT22;21463;47.480;8.214;2023-07-16T03:14:44;21.60;70.40
35363;DHT22;21463;47.480;8.214;2023-07-16T03:15:46;21.60;70.30
35363;DHT22;21463;47.480;8.214;2023-07-16T03:16:49;21.60;70.40
35363;DHT22;21463;47.480;8.214;2023-07-16T03:17:51;21.60;70.40
35363;DHT22;21463;47.480;8.214;2023-07-16T03:18:54;21.60;70.30
35363;DHT22;21463;47.480;8.214;2023-07-16T03:20:00;21.60;70.40
35363;DHT22;21463;47.480;8.214;2023-07-16T03:21:02;21.60;70.30
35363;DHT22;21463;47.480;8.214;2023-07-16T03:22:05;21.60;70.40
35363;DHT22;21463;47.480;8.214;2023-07-16T03:23:07;21.60;70.30
35363;DHT22;21463;47.480;8.214;2023-07-16T03:24:10;21.60;70.30
35363;DHT22;21463;47.480;8.214;2023-07-16T03:25:12;21.60;70.30
35363;DHT22;21463;47.480;8.214;2023-07-16T03:26:14;21.60;70.30
35363;DHT22;21463;47.480;8.214;2023-07-16T03:27:17;21.60;70.30
35363;DHT22;21463;47.480;8.214;2023-07-16T03:28:27;21.60;70.30
35363;DHT22;21463;47.480;8.214;2023-07-16T03:29:29;21.60;70.30
35363;DHT22;21463;47.480;8.214;2023-07-16T03:30:32;21.60;70.30
35363;DHT22;21463;47.480;8.214;2023-07-16T03:31:35;21.60;70.30
35363;DHT22;21463;47.480;8.214;2023-07-16T03:32:38;21.60;70.30
35363;DHT22;21463;47.480;8.214;2023-07-16T03:33:54;21.60;70.30
35363;DHT22;21463;47.480;8.214;2023-07-16T03:35:02;21.60;70.30
35363;DHT22;21463;47.480;8.214;2023-07-16T03:36:05;21.60;70.30
35363;DHT22;21463;47.480;8.214;2023-07-16T03:37:07;21.60;70.30
35363;DHT22;21463;47.480;8.214;2023-07-16T03:38:12;21.60;70.30
35363;DHT22;21463;47.480;8.214;2023-07-16T03:39:15;21.60;70.30
35363;DHT22;21463;47.480;8.214;2023-07-16T03:40:18;21.60;70.30
35363;DHT22;21463;47.480;8.214;2023-07-16T03:41:21;21.60;70.30
35363;DHT22;21463;47.480;8.214;2023-07-16T03:42:24;21.60;70.30
35363;DHT22;21463;47.480;8.214;2023-07-16T03:43:27;21.60;70.30
35363;DHT22;21463;47.480;8.214;2023-07-16T03:44:36;21.60;70.30
35363;DHT22;21463;47.480;8.214;2023-07-16T03:45:38;21.60;70.30
35363;DHT22;21463;47.480;8.214;2023-07-16T03:46:41;21.60;70.20
35363;DHT22;21463;47.480;8.214;2023-07-16T03:47:45;21.60;70.20
35363;DHT22;21463;47.480;8.214;2023-07-16T03:48:47;21.60;70.20
35363;DHT22;21463;47.480;8.214;2023-07-16T03:49:49;21.60;70.20
35363;DHT22;21463;47.480;8.214;2023-07-16T03:50:52;21.60;70.20
35363;DHT22;21463;47.480;8.214;2023-07-16T03:51:55;21.60;70.20
35363;DHT22;21463;47.480;8.214;2023-07-16T03:52:58;21.60;70.20
35363;DHT22;21463;47.480;8.214;2023-07-16T03:54:01;21.60;70.20
35363;DHT22;21463;47.480;8.214;2023-07-16T03:55:03;21.60;70.20
35363;DHT22;21463;47.480;8.214;2023-07-16T03:56:08;21.60;70.20
35363;DHT22;21463;47.480;8.214;2023-07-16T03:57:11;21.60;70.20
35363;DHT22;21463;47.480;8.214;2023-07-16T03:58:13;21.60;70.20
35363;DHT22;21463;47.480;8.214;2023-07-16T03:59:15;21.60;70.20
35363;DHT22;21463;47.480;8.214;2023-07-16T04:00:17;21.60;70.20
35363;DHT22;21463;47.480;8.214;2023-07-16T04:01:24;21.60;70.20
35363;DHT22;21463;47.480;8.214;2023-07-16T04:02:26;21.60;70.10
35363;DHT22;21463;47.480;8.214;2023-07-16T04:03:29;21.60;70.20
35363;DHT22;21463;47.480;8.214;2023-07-16T04:04:31;21.60;70.20
35363;DHT22;21463;47.480;8.214;2023-07-16T04:05:33;21.60;70.10
35363;DHT22;21463;47.480;8.214;2023-07-16T04:06:36;21.60;70.20
35363;DHT22;21463;47.480;8.214;2023-07-16T04:07:38;21.60;70.10
35363;DHT22;21463;47.480;8.214;2023-07-16T04:08:40;21.60;70.10
35363;DHT22;21463;47.480;8.214;2023-07-16T04:09:43;21.60;70.10
35363;DHT22;21463;47.480;8.214;2023-07-16T04:10:45;21.60;70.10
35363;DHT22;21463;47.480;8.214;2023-07-16T04:11:47;21.60;70.10
35363;DHT22;21463;47.480;8.214;2023-07-16T04:12:51;21.60;70.10
35363;DHT22;21463;47.480;8.214;2023-07-16T04:13:53;21.60;70.10
35363;DHT22;21463;47.480;8.214;2023-07-16T04:14:56;21.60;70.10
35363;DHT22;21463;47.480;8.214;2023-07-16T04:15:59;21.60;70.10
35363;DHT22;21463;47.480;8.214;2023-07-16T04:17:01;21.60;70.10
35363;DHT22;21463;47.480;8.214;2023-07-16T04:18:04;21.60;70.60
35363;DHT22;21463;47.480;8.214;2023-07-16T04:19:06;21.60;70.10
35363;DHT22;21463;47.480;8.214;2023-07-16T04:20:09;21.60;70.00
35363;DHT22;21463;47.480;8.214;2023-07-16T04:21:11;21.60;70.00
35363;DHT22;21463;47.480;8.214;2023-07-16T04:22:14;21.60;70.00
35363;DHT22;21463;47.480;8.214;2023-07-16T04:23:16;21.60;70.00
35363;DHT22;21463;47.480;8.214;2023-07-16T04:24:18;21.60;70.00
35363;DHT22;21463;47.480;8.214;2023-07-16T04:25:20;21.60;70.00
35363;DHT22;21463;47.480;8.214;2023-07-16T04:26:23;21.60;70.00
35363;DHT22;21463;47.480;8.214;2023-07-16T04:27:25;21.60;70.00
35363;DHT22;21463;47.480;8.214;2023-07-16T04:28:27;21.60;70.00
35363;DHT22;21463;47.480;8.214;2023-07-16T04:29:30;21.60;70.00
35363;DHT22;21463;47.480;8.214;2023-07-16T04:30:32;21.60;70.00
35363;DHT22;21463;47.480;8.214;2023-07-16T04:31:34;21.60;70.00
35363;DHT22;21463;47.480;8.214;2023-07-16T04:32:37;21.60;70.00
35363;DHT22;21463;47.480;8.214;2023-07-16T04:33:39;21.60;70.00
35363;DHT22;21463;47.480;8.214;2023-07-16T04:34:45;21.60;70.00
35363;DHT22;21463;47.480;8.214;2023-07-16T04:35:48;21.60;70.00
35363;DHT22;21463;47.480;8.214;2023-07-16T04:36:50;21.60;70.00
35363;DHT22;21463;47.480;8.214;2023-07-16T04:37:52;21.60;70.00
35363;DHT22;21463;47.480;8.214;2023-07-16T04:38:54;21.60;69.90
35363;DHT22;21463;47.480;8.214;2023-07-16T04:39:57;21.60;69.90
35363;DHT22;21463;47.480;8.214;2023-07-16T04:40:59;21.60;69.90
35363;DHT22;21463;47.480;8.214;2023-07-16T04:42:01;21.50;69.80
35363;DHT22;21463;47.480;8.214;2023-07-16T04:43:03;21.60;69.90
35363;DHT22;21463;47.480;8.214;2023-07-16T04:44:06;21.60;69.90
35363;DHT22;21463;47.480;8.214;2023-07-16T04:45:09;21.60;69.90
35363;DHT22;21463;47.480;8.214;2023-07-16T04:46:11;21.60;69.80
35363;DHT22;21463;47.480;8.214;2023-07-16T04:47:14;21.60;69.80
35363;DHT22;21463;47.480;8.214;2023-07-16T04:48:16;21.60;69.80
35363;DHT22;21463;47.480;8.214;2023-07-16T04:49:19;21.60;69.80
35363;DHT22;21463;47.480;8.214;2023-07-16T04:50:21;21.60;69.80
35363;DHT22;21463;47.480;8.214;2023-07-16T04:51:23;21.60;69.80
35363;DHT22;21463;47.480;8.214;2023-07-16T04:52:25;21.60;69.80
35363;DHT22;21463;47.480;8.214;2023-07-16T04:53:28;21.60;69.80
35363;DHT22;21463;47.480;8.214;2023-07-16T04:54:34;21.60;69.80
35363;DHT22;21463;47.480;8.214;2023-07-16T04:55:37;21.60;69.80
35363;DHT22;21463;47.480;8.214;2023-07-16T04:56:42;21.60;69.80
35363;DHT22;21463;47.480;8.214;2023-07-16T04:57:44;21.60;69.70
35363;DHT22;21463;47.480;8.214;2023-07-16T04:58:49;21.60;69.80
35363;DHT22;21463;47.480;8.214;2023-07-16T04:59:51;21.60;69.70
35363;DHT22;21463;47.480;8.214;2023-07-16T05:00:54;21.50;69.60
35363;DHT22;21463;47.480;8.214;2023-07-16T05:01:56;21.60;69.70
35363;DHT22;21463;47.480;8.214;2023-07-16T05:02:58;21.60;69.70
35363;DHT22;21463;47.480;8.214;2023-07-16T05:04:04;21.60;69.70
35363;DHT22;21463;47.480;8.214;2023-07-16T05:05:06;21.60;69.70
35363;DHT22;21463;47.480;8.214;2023-07-16T05:06:08;21.60;69.70
35363;DHT22;21463;47.480;8.214;2023-07-16T05:07:11;21.50;69.60
35363;DHT22;21463;47.480;8.214;2023-07-16T05:08:13;21.60;69.70
35363;DHT22;21463;47.480;8.214;2023-07-16T05:09:15;21.60;69.70
35363;DHT22;21463;47.480;8.214;2023-07-16T05:10:17;21.60;69.70
35363;DHT22;21463;47.480;8.214;2023-07-16T05:11:20;21.50;69.60
35363;DHT22;21463;47.480;8.214;2023-07-16T05:12:22;21.50;69.60
35363;DHT22;21463;47.480;8.214;2023-07-16T05:13:24;21.60;69.60
35363;DHT22;21463;47.480;8.214;2023-07-16T05:14:27;21.60;69.60
35363;DHT22;21463;47.480;8.214;2023-07-16T05:15:31;21.60;69.70
35363;DHT22;21463;47.480;8.214;2023-07-16T05:16:34;21.60;69.60
35363;DHT22;21463;47.480;8.214;2023-07-16T05:17:36;21.60;69.60
35363;DHT22;21463;47.480;8.214;2023-07-16T05:18:39;21.60;69.60
35363;DHT22;21463;47.480;8.214;2023-07-16T05:19:41;21.60;69.60
35363;DHT22;21463;47.480;8.214;2023-07-16T05:20:46;21.50;69.50
35363;DHT22;21463;47.480;8.214;2023-07-16T05:21:48;21.60;69.60
35363;DHT22;21463;47.480;8.214;2023-07-16T05:22:51;21.60;69.60
35363;DHT22;21463;47.480;8.214;2023-07-16T05:23:53;21.50;69.50
35363;DHT22;21463;47.480;8.214;2023-07-16T05:24:55;21.50;69.50
35363;DHT22;21463;47.480;8.214;2023-07-16T05:25:57;21.60;69.60
35363;DHT22;21463;47.480;8.214;2023-07-16T05:27:00;21.50;69.50
35363;DHT22;21463;47.480;8.214;2023-07-16T05:28:03;21.50;69.50
35363;DHT22;21463;47.480;8.214;2023-07-16T05:29:05;21.50;69.50
35363;DHT22;21463;47.480;8.214;2023-07-16T05:30:08;21.60;69.50
35363;DHT22;21463;47.480;8.214;2023-07-16T05:31:12;21.50;69.50
35363;DHT22;21463;47.480;8.214;2023-07-16T05:32:14;21.50;69.50
35363;DHT22;21463;47.480;8.214;2023-07-16T05:33:16;21.60;69.50
35363;DHT22;21463;47.480;8.214;2023-07-16T05:34:19;21.50;69.50
35363;DHT22;21463;47.480;8.214;2023-07-16T05:35:21;21.50;69.40
35363;DHT22;21463;47.480;8.214;2023-07-16T05:36:23;21.50;69.40
35363;DHT22;21463;47.480;8.214;2023-07-16T05:37:26;21.50;69.40
35363;DHT22;21463;47.480;8.214;2023-07-16T05:38:28;21.60;70.00
35363;DHT22;21463;47.480;8.214;2023-07-16T05:39:30;21.50;69.40
35363;DHT22;21463;47.480;8.214;2023-07-16T05:40:32;21.50;69.40
35363;DHT22;21463;47.480;8.214;2023-07-16T05:41:35;21.50;69.40
35363;DHT22;21463;47.480;8.214;2023-07-16T05:42:37;21.50;69.40
35363;DHT22;21463;47.480;8.214;2023-07-16T05:43:39;21.50;69.40
35363;DHT22;21463;47.480;8.214;2023-07-16T05:44:41;21.50;69.30
35363;DHT22;21463;47.480;8.214;2023-07-16T05:45:48;21.60;69.40
35363;DHT22;21463;47.480;8.214;2023-07-16T05:46:50;21.50;69.30
35363;DHT22;21463;47.480;8.214;2023-07-16T05:47:52;21.50;69.30
35363;DHT22;21463;47.480;8.214;2023-07-16T05:48:55;21.50;69.30
35363;DHT22;21463;47.480;8.214;2023-07-16T05:49:57;21.50;69.30
35363;DHT22;21463;47.480;8.214;2023-07-16T05:50:59;21.50;69.30
35363;DHT22;21463;47.480;8.214;2023-07-16T05:52:02;21.50;69.30
35363;DHT22;21463;47.480;8.214;2023-07-16T05:53:04;21.50;69.30
35363;DHT22;21463;47.480;8.214;2023-07-16T05:54:06;21.50;69.30
35363;DHT22;21463;47.480;8.214;2023-07-16T05:55:09;21.50;69.20
35363;DHT22;21463;47.480;8.214;2023-07-16T05:56:11;21.50;69.20
35363;DHT22;21463;47.480;8.214;2023-07-16T05:57:14;21.50;69.20
35363;DHT22;21463;47.480;8.214;2023-07-16T05:58:16;21.50;69.20
35363;DHT22;21463;47.480;8.214;2023-07-16T05:59:19;21.60;69.20
35363;DHT22;21463;47.480;8.214;2023-07-16T06:00:21;21.50;69.10
35363;DHT22;21463;47.480;8.214;2023-07-16T06:01:23;21.60;69.20
35363;DHT22;21463;47.480;8.214;2023-07-16T06:02:26;21.50;69.10
35363;DHT22;21463;47.480;8.214;2023-07-16T06:03:28;21.50;69.10
35363;DHT22;21463;47.480;8.214;2023-07-16T06:04:31;21.50;69.10
35363;DHT22;21463;47.480;8.214;2023-07-16T06:05:33;21.50;69.10
35363;DHT22;21463;47.480;8.214;2023-07-16T06:06:36;21.60;69.20
35363;DHT22;21463;47.480;8.214;2023-07-16T06:07:38;21.50;69.10
35363;DHT22;21463;47.480;8.214;2023-07-16T06:08:41;21.50;69.10
35363;DHT22;21463;47.480;8.214;2023-07-16T06:09:43;21.50;69.00
35363;DHT22;21463;47.480;8.214;2023-07-16T06:10:45;21.50;69.00
35363;DHT22;21463;47.480;8.214;2023-07-16T06:11:47;21.50;69.00
35363;DHT22;21463;47.480;8.214;2023-07-16T06:12:50;21.50;69.00
35363;DHT22;21463;47.480;8.214;2023-07-16T06:13:55;21.50;69.00
35363;DHT22;21463;47.480;8.214;2023-07-16T06:14:57;21.50;69.00
35363;DHT22;21463;47.480;8.214;2023-07-16T06:15:59;21.50;69.00
35363;DHT22;21463;47.480;8.214;2023-07-16T06:17:02;21.50;68.90
35363;DHT22;21463;47.480;8.214;2023-07-16T06:18:04;21.50;68.90
35363;DHT22;21463;47.480;8.214;2023-07-16T06:19:08;21.50;68.90
35363;DHT22;21463;47.480;8.214;2023-07-16T06:20:10;21.50;68.90
35363;DHT22;21463;47.480;8.214;2023-07-16T06:21:13;21.50;68.80
35363;DHT22;21463;47.480;8.214;2023-07-16T06:22:15;21.50;68.90
35363;DHT22;21463;47.480;8.214;2023-07-16T06:23:17;21.50;68.80
35363;DHT22;21463;47.480;8.214;2023-07-16T06:24:19;21.50;68.80
35363;DHT22;21463;47.480;8.214;2023-07-16T06:25:22;21.50;68.80
35363;DHT22;21463;47.480;8.214;2023-07-16T06:26:24;21.50;68.80
35363;DHT22;21463;47.480;8.214;2023-07-16T06:27:27;21.50;68.70
35363;DHT22;21463;47.480;8.214;2023-07-16T06:28:30;21.50;68.70
35363;DHT22;21463;47.480;8.214;2023-07-16T06:29:34;21.50;68.70
35363;DHT22;21463;47.480;8.214;2023-07-16T06:30:39;21.50;68.70
35363;DHT22;21463;47.480;8.214;2023-07-16T06:31:53;21.50;68.70
35363;DHT22;21463;47.480;8.214;2023-07-16T06:32:56;21.50;68.60
35363;DHT22;21463;47.480;8.214;2023-07-16T06:33:58;21.50;68.60
35363;DHT22;21463;47.480;8.214;2023-07-16T06:35:00;21.50;68.60
35363;DHT22;21463;47.480;8.214;2023-07-16T06:36:02;21.50;68.60
35363;DHT22;21463;47.480;8.214;2023-07-16T06:37:05;21.50;68.50
35363;DHT22;21463;47.480;8.214;2023-07-16T06:38:08;21.50;68.60
35363;DHT22;21463;47.480;8.214;2023-07-16T06:39:10;21.50;68.50
35363;DHT22;21463;47.480;8.214;2023-07-16T06:40:12;21.50;68.50
35363;DHT22;21463;47.480;8.214;2023-07-16T06:41:14;21.50;68.50
35363;DHT22;21463;47.480;8.214;2023-07-16T06:42:17;21.50;68.40
35363;DHT22;21463;47.480;8.214;2023-07-16T06:43:19;21.50;68.40
35363;DHT22;21463;47.480;8.214;2023-07-16T06:44:21;21.50;68.40